Time;durP1;ratioP1;P1;durP2;ratioP2;P2;SDS_P1;SDS_P2;PMS_P1;PMS_P2;Temp;Humidity;BMP_temperature;BMP_pressure;BME280_temperature;BME280_humidity;BME280_pressure;Samples;Min_cycle;Max_cycle;Signal;HPM_P1;HPM_P2
2021/01/09 00:00:47;;;;;;;27.88;14.77;;;1.10;99.90;;;1.85;94.80;101072.44;5015829;28;20037;-83
2021/01/09 00:03:13;;;;;;;30.88;15.52;;;1.10;99.90;;;1.83;95.14;101074.69;4999859;28;20033;-83
2021/01/09 00:05:38;;;;;;;27.83;15.32;;;1.10;99.90;;;1.84;95.03;101076.31;5000344;28;20492;-85
2021/01/09 00:08:05;;;;;;;30.10;15.88;;;1.10;99.90;;;1.82;95.00;101084.88;5000019;28;20040;-85
2021/01/09 00:10:31;;;;;;;34.65;17.38;;;1.10;99.90;;;1.79;94.93;101079.94;5020271;28;20026;-82
2021/01/09 00:12:57;;;;;;;27.02;14.98;;;1.10;99.90;;;1.84;94.75;101076.31;5001585;28;20030;-82
2021/01/09 00:15:23;;;;;;;29.13;15.18;;;1.10;99.90;;;1.84;94.31;101082.63;4997998;28;20476;-82
2021/01/09 00:17:49;;;;;;;26.90;15.18;;;1.10;99.90;;;1.77;94.23;101075.81;4997287;28;20070;-82
2021/01/09 00:20:16;;;;;;;33.08;16.23;;;1.00;99.90;;;1.72;94.58;101087.72;5015099;28;20029;-81
2021/01/09 00:22:43;;;;;;;31.63;16.60;;;1.00;99.90;;;1.68;94.60;101088.56;5015621;28;20030;-84
2021/01/09 00:25:16;;;;;;;32.83;16.70;;;1.00;99.90;;;1.68;95.08;101083.06;4998033;28;20381;-84
2021/01/09 00:27:42;;;;;;;32.50;18.25;;;1.00;99.90;;;1.68;94.85;101089.41;5015509;28;20116;-82
2021/01/09 00:30:09;;;;;;;33.17;17.83;;;0.90;99.90;;;1.63;95.13;101085.88;5015696;28;20018;-81
2021/01/09 00:32:35;;;;;;;41.38;20.35;;;0.90;99.90;;;1.65;95.21;101083.63;5019133;28;20095;-83
2021/01/09 00:35:01;;;;;;;37.95;18.70;;;0.90;99.90;;;1.62;95.08;101085.03;5016838;28;20025;-83
2021/01/09 00:37:31;;;;;;;31.98;17.83;;;0.90;99.90;;;1.65;95.19;101094.66;5034737;28;20036;-81
2021/01/09 00:39:57;;;;;;;43.22;19.52;;;0.90;99.90;;;1.65;95.45;101100.16;5016674;28;20029;-83
2021/01/09 00:42:23;;;;;;;36.42;18.45;;;0.90;99.90;;;1.66;95.19;101107.31;5034503;28;20030;-83
2021/01/09 00:44:54;;;;;;;38.55;16.60;;;0.90;99.90;;;1.64;95.03;101102.09;5034179;28;20038;-84
2021/01/09 00:47:20;;;;;;;34.58;17.85;;;0.90;99.90;;;1.64;95.13;101112.31;5016104;28;20029;-83
2021/01/09 00:49:46;;;;;;;34.97;18.02;;;0.90;99.90;;;1.65;94.99;101106.50;5016361;28;20037;-83
2021/01/09 00:52:12;;;;;;;29.60;15.80;;;0.90;99.90;;;1.64;95.22;101120.56;5016174;28;20501;-84
2021/01/09 00:54:38;;;;;;;32.83;17.77;;;0.90;99.90;;;1.64;95.23;101115.84;5012209;28;20025;-84
2021/01/09 00:57:04;;;;;;;35.22;19.15;;;0.90;99.90;;;1.66;95.18;101108.16;5032494;28;20029;-85
2021/01/09 00:59:30;;;;;;;31.45;17.17;;;0.90;99.90;;;1.71;95.09;101121.84;5015061;28;20029;-84
2021/01/09 01:01:59;;;;;;;38.88;19.38;;;0.90;99.90;;;1.71;94.81;101115.53;5032144;28;20045;-85
2021/01/09 01:04:25;;;;;;;30.42;16.13;;;0.90;99.90;;;1.67;94.83;101115.28;5035835;28;20374;-84
2021/01/09 01:06:51;;;;;;;40.55;18.40;;;0.90;99.90;;;1.65;95.15;101120.25;5018174;28;20035;-85
2021/01/09 01:09:17;;;;;;;35.38;18.63;;;0.90;99.90;;;1.69;95.08;101112.25;5015267;28;20084;-85
2021/01/09 01:11:43;;;;;;;34.90;18.02;;;0.90;99.90;;;1.71;94.96;101115.53;5002965;28;20034;-84
2021/01/09 01:14:10;;;;;;;41.75;20.10;;;0.90;99.90;;;1.72;95.13;101122.69;4998490;28;20067;-84
2021/01/09 01:16:36;;;;;;;31.27;16.83;;;1.00;99.90;;;1.66;95.15;101126.59;5000054;28;20033;-84
2021/01/09 01:19:03;;;;;;;55.50;22.15;;;1.00;99.90;;;1.66;95.03;101129.34;5000264;28;20095;-83
2021/01/09 01:21:29;;;;;;;46.70;19.77;;;1.00;99.90;;;1.65;95.35;101119.44;5018357;28;20030;-84
2021/01/09 01:23:54;;;;;;;39.85;18.77;;;0.90;99.90;;;1.66;95.45;101132.09;5000433;28;20363;-86
2021/01/09 01:26:20;;;;;;;31.35;16.73;;;0.90;99.90;;;1.63;95.06;101124.41;5000656;28;20084;-85
2021/01/09 01:28:46;;;;;;;53.92;21.27;;;1.00;99.90;;;1.65;95.43;101136.78;5001286;28;20030;-84
2021/01/09 01:31:12;;;;;;;36.75;19.67;;;0.90;99.90;;;1.68;95.30;101136.19;5000604;28;20030;-83
2021/01/09 01:33:40;;;;;;;32.78;17.65;;;0.90;99.90;;;1.59;95.66;101133.25;5000541;28;20401;-84
2021/01/09 01:36:11;;;;;;;33.30;16.77;;;0.90;99.90;;;1.59;95.81;101136.00;5001282;28;20030;-84
2021/01/09 01:38:38;;;;;;;37.78;18.67;;;0.90;99.90;;;1.65;95.57;101133.19;5002409;28;20111;-84
2021/01/09 01:41:11;;;;;;;38.53;18.25;;;0.90;99.90;;;1.74;95.28;101146.06;5047411;28;20092;-84
2021/01/09 01:43:38;;;;;;;48.88;19.65;;;0.90;99.90;;;1.74;95.12;101148.81;5003103;28;20030;-84
2021/01/09 01:46:08;;;;;;;41.47;18.67;;;0.90;99.90;;;1.70;94.95;101153.28;4997806;28;20033;-83
2021/01/09 01:48:37;;;;;;;40.00;19.15;;;1.00;99.90;;;1.72;95.27;101158.47;4998011;28;20375;-84
2021/01/09 01:51:05;;;;;;;36.92;18.98;;;1.00;99.90;;;1.77;94.92;101161.19;5015700;28;20026;-84
2021/01/09 01:53:33;;;;;;;36.42;18.52;;;1.00;99.90;;;1.77;95.01;101161.19;4998259;28;20403;-85
2021/01/09 01:55:59;;;;;;;41.28;19.45;;;1.00;99.90;;;1.81;94.73;101168.59;4998528;28;20116;-86
2021/01/09 01:58:25;;;;;;;56.03;22.60;;;1.00;99.90;;;1.76;94.70;101173.34;4998405;28;20048;-85
2021/01/09 02:00:52;;;;;;;37.38;18.70;;;1.00;99.90;;;1.70;94.93;101164.31;4998612;28;20064;-82
2021/01/09 02:03:21;;;;;;;35.28;18.60;;;1.00;99.90;;;1.67;95.22;101153.03;5016439;28;20057;-85
2021/01/09 02:06:21;;;;;;;32.38;16.65;;;1.00;99.90;;;1.64;95.69;101157.16;4998830;28;20468;-85
2021/01/09 02:09:21;;;;;;;29.75;16.20;;;1.00;99.90;;;1.64;95.51;101157.16;5015544;28;20454;-84
2021/01/09 02:12:04;;;;;;;33.97;16.45;;;0.90;99.90;;;1.65;95.50;101163.50;4999173;28;20056;-85
2021/01/09 02:14:56;;;;;;;34.78;17.92;;;0.90;99.90;;;1.64;95.80;101153.59;5016962;28;20034;-85
2021/01/09 02:17:24;;;;;;;29.85;15.90;;;0.90;99.90;;;1.58;95.78;101159.13;5017321;28;20388;-86
2021/01/09 02:20:02;;;;;;;31.90;15.88;;;0.90;99.90;;;1.57;95.72;101160.22;5009394;28;20076;-85
2021/01/09 02:22:40;;;;;;;28.30;15.48;;;0.90;99.90;;;1.56;96.06;101166.03;5044285;28;20045;-85
2021/01/09 02:25:07;;;;;;;35.75;17.08;;;0.90;99.90;;;1.55;96.08;101158.88;5029446;28;20033;-85
2021/01/09 02:27:33;;;;;;;36.38;17.33;;;0.80;99.90;;;1.51;95.92;101155.88;5029915;28;20037;-84
2021/01/09 02:30:18;;;;;;;37.88;17.60;;;0.80;99.90;;;1.52;96.05;101164.97;5030905;28;20032;-84
2021/01/09 02:33:09;;;;;;;33.35;17.35;;;0.80;99.90;;;1.53;96.02;101172.94;5019798;28;20025;-85
2021/01/09 02:35:39;;;;;;;36.08;18.15;;;0.80;99.90;;;1.55;95.91;101172.66;5036738;28;20022;-86
2021/01/09 02:38:06;;;;;;;39.50;19.55;;;0.80;99.90;;;1.55;96.02;101184.47;5019010;28;20040;-85
2021/01/09 02:40:42;;;;;;;35.55;18.15;;;0.80;99.90;;;1.51;96.18;101177.06;5036588;28;20512;-85
2021/01/09 02:43:14;;;;;;;40.65;18.98;;;0.80;99.90;;;1.49;95.97;101188.38;5018784;28;20029;-83
2021/01/09 02:45:41;;;;;;;38.17;19.38;;;0.80;99.90;;;1.47;96.14;101179.59;5016070;28;20025;-85
2021/01/09 02:48:08;;;;;;;40.17;18.02;;;0.80;99.90;;;1.41;96.17;101177.94;5018738;28;20056;-85
2021/01/09 02:50:35;;;;;;;40.80;18.95;;;0.70;99.90;;;1.36;96.24;101172.50;5047006;28;20032;-84
2021/01/09 02:53:01;;;;;;;36.42;18.35;;;0.70;99.90;;;1.34;96.51;101180.22;5048706;28;20021;-86
2021/01/09 02:55:27;;;;;;;32.85;16.65;;;0.70;99.90;;;1.33;96.51;101186.00;5031056;28;20040;-84
2021/01/09 02:57:52;;;;;;;37.25;18.95;;;0.70;99.90;;;1.36;96.53;101180.75;5031119;28;20033;-84
2021/01/09 03:00:19;;;;;;;41.22;19.75;;;0.70;99.90;;;1.39;96.63;101188.44;5046135;28;20033;-84
2021/01/09 03:02:45;;;;;;;39.10;19.40;;;0.70;99.90;;;1.45;96.46;101195.56;5024954;28;20048;-85
2021/01/09 03:05:12;;;;;;;44.08;20.67;;;0.80;99.90;;;1.49;96.46;101193.88;5019556;28;20031;-86
2021/01/09 03:07:38;;;;;;;47.70;20.15;;;0.80;99.90;;;1.54;96.63;101195.78;5035798;28;20186;-85
2021/01/09 03:10:05;;;;;;;49.05;21.75;;;0.80;99.90;;;1.59;96.66;101196.56;5019388;28;20021;-85
2021/01/09 03:12:32;;;;;;;45.83;20.65;;;0.90;99.90;;;1.62;96.91;101195.19;5018759;28;20025;-85
2021/01/09 03:14:58;;;;;;;42.67;19.58;;;0.90;99.90;;;1.65;96.42;101194.59;5018195;28;20178;-85
2021/01/09 03:17:24;;;;;;;43.97;19.60;;;0.90;99.90;;;1.68;96.37;101187.69;5017640;28;20120;-86
2021/01/09 03:19:50;;;;;;;48.17;21.42;;;1.00;99.90;;;1.72;96.44;101194.28;5022514;28;20064;-83
2021/01/09 03:22:16;;;;;;;47.20;21.23;;;1.00;99.90;;;1.74;96.49;101192.06;5029016;28;20029;-85
2021/01/09 03:24:42;;;;;;;44.22;20.33;;;1.00;99.90;;;1.74;96.42;101189.31;5047170;28;20059;-84
2021/01/09 03:27:08;;;;;;;46.03;21.38;;;1.00;99.90;;;1.76;96.36;101190.69;5044141;28;20033;-85
2021/01/09 03:29:34;;;;;;;44.30;19.15;;;1.00;99.90;;;1.74;96.25;101194.81;5025663;28;20033;-86
2021/01/09 03:31:59;;;;;;;44.80;20.70;;;1.00;99.90;;;1.76;96.52;101190.69;5020750;28;20048;-85
2021/01/09 03:34:25;;;;;;;48.33;21.60;;;1.00;99.90;;;1.78;96.37;101188.47;5037616;28;20029;-85
2021/01/09 03:36:51;;;;;;;44.65;22.50;;;1.10;99.90;;;1.82;96.38;101191.47;5044115;28;20030;-84
2021/01/09 03:39:17;;;;;;;45.45;21.00;;;1.10;99.90;;;1.85;95.98;101196.41;5021738;28;20040;-85
2021/01/09 03:41:42;;;;;;;39.85;19.20;;;1.10;99.90;;;1.82;95.98;101195.03;5036149;28;20037;-85
2021/01/09 03:44:08;;;;;;;45.08;21.70;;;1.10;99.90;;;1.87;95.92;101199.69;5017484;28;20037;-85
2021/01/09 03:46:34;;;;;;;41.38;19.50;;;1.10;99.90;;;1.82;96.40;101195.03;5035070;28;20037;-85
2021/01/09 03:49:00;;;;;;;42.10;20.05;;;1.10;99.90;;;1.83;96.41;101199.44;5017819;28;20025;-85
2021/01/09 03:51:26;;;;;;;42.78;20.45;;;1.10;99.90;;;1.81;96.10;101204.41;5014907;28;20030;-85
2021/01/09 03:53:51;;;;;;;45.67;20.08;;;1.10;99.90;;;1.85;96.43;101199.97;5017912;28;20033;-84
2021/01/09 03:56:17;;;;;;;41.20;19.10;;;1.10;99.90;;;1.83;96.58;101193.91;5037324;28;20036;-85
2021/01/09 03:58:43;;;;;;;41.65;19.50;;;1.10;99.90;;;1.82;96.42;101188.72;5049178;28;20060;-82
2021/01/09 04:01:09;;;;;;;38.08;18.63;;;1.10;99.90;;;1.84;96.65;101200.25;5038854;28;20038;-85
2021/01/09 04:03:35;;;;;;;42.22;19.83;;;1.10;99.90;;;1.94;96.17;101198.25;5024102;28;20133;-85
2021/01/09 04:06:01;;;;;;;39.20;19.27;;;1.20;99.90;;;1.93;95.99;101209.53;5034813;28;20414;-84
2021/01/09 04:08:27;;;;;;;37.67;17.70;;;1.20;99.90;;;1.88;95.98;101202.16;5017405;28;20552;-84
2021/01/09 04:10:52;;;;;;;36.85;18.98;;;1.20;99.90;;;1.89;96.06;101205.75;5033998;28;20029;-84
2021/01/09 04:13:21;;;;;;;32.35;17.10;;;1.20;99.90;;;1.89;95.83;101203.81;5034523;28;20060;-84
2021/01/09 04:15:47;;;;;;;42.85;18.60;;;1.20;99.90;;;1.87;96.28;101206.00;5029873;28;20092;-85
2021/01/09 04:18:12;;;;;;;36.30;17.75;;;1.10;99.90;;;1.88;96.28;101206.84;4997570;28;20115;-83
2021/01/09 04:20:38;;;;;;;38.65;18.13;;;1.10;99.90;;;1.89;95.98;101206.56;4997016;28;20112;-84
2021/01/09 04:23:04;;;;;;;32.47;16.67;;;1.20;99.90;;;1.85;95.66;101205.50;5014856;28;20438;-83
2021/01/09 04:25:33;;;;;;;33.00;16.70;;;1.10;99.90;;;1.78;95.86;101217.94;4996907;28;20088;-85
2021/01/09 04:27:58;;;;;;;31.40;17.10;;;1.10;99.90;;;1.77;95.82;101210.75;4996822;28;20068;-84
2021/01/09 04:30:24;;;;;;;40.30;18.77;;;1.10;99.90;;;1.75;96.06;101210.25;5014092;28;20513;-84
2021/01/09 04:32:50;;;;;;;41.83;19.27;;;1.10;99.90;;;1.72;95.99;101208.06;5015128;28;20478;-82
2021/01/09 04:35:16;;;;;;;36.70;17.65;;;1.00;99.90;;;1.74;96.12;101214.91;4998238;28;20057;-85
2021/01/09 04:37:42;;;;;;;37.42;18.30;;;1.00;99.90;;;1.73;96.39;101216.03;4999960;28;20501;-85
2021/01/09 04:40:09;;;;;;;36.42;19.33;;;1.10;99.90;;;1.75;96.52;101221.25;5000730;28;20033;-84
2021/01/09 04:42:36;;;;;;;40.20;18.73;;;1.10;99.90;;;1.79;96.51;101211.31;5000176;28;20034;-84
2021/01/09 04:45:04;;;;;;;37.17;19.63;;;1.10;99.90;;;1.79;96.15;101220.41;5000798;28;20033;-84
2021/01/09 04:47:32;;;;;;;37.28;18.48;;;1.10;99.90;;;1.77;96.65;101219.03;5000237;28;20058;-85
2021/01/09 04:50:01;;;;;;;39.65;18.38;;;1.10;99.90;;;1.70;96.63;101218.53;5018592;28;20535;-85
2021/01/09 04:52:28;;;;;;;41.95;18.90;;;1.10;99.90;;;1.72;96.61;101227.34;5018343;28;20386;-85
2021/01/09 04:54:56;;;;;;;40.20;19.73;;;1.00;99.90;;;1.75;96.65;101226.75;5018660;28;20445;-86
2021/01/09 04:57:22;;;;;;;51.30;23.40;;;1.00;99.90;;;1.75;96.52;101232.28;5004334;28;20047;-84
2021/01/09 04:59:50;;;;;;;54.70;24.58;;;1.00;99.90;;;1.73;96.61;101234.50;5001148;28;20481;-85
2021/01/09 05:02:18;;;;;;;58.03;26.85;;;1.00;99.90;;;1.75;96.36;101229.50;5019538;28;20061;-86
2021/01/09 05:04:45;;;;;;;61.13;26.30;;;1.00;99.90;;;1.71;96.38;101239.44;5021043;28;20034;-86
2021/01/09 05:07:12;;;;;;;53.47;23.13;;;1.00;99.90;;;1.67;96.37;101235.63;5018510;28;20022;-83
2021/01/09 05:09:43;;;;;;;52.55;23.83;;;0.90;99.90;;;1.65;96.52;101232.31;5012368;28;20057;-86
2021/01/09 05:12:10;;;;;;;55.55;24.48;;;0.90;99.90;;;1.66;96.60;101233.97;5036957;28;20026;-83
2021/01/09 05:14:37;;;;;;;57.72;25.33;;;0.90;99.90;;;1.64;96.57;101242.50;5037230;28;20037;-83
2021/01/09 05:17:04;;;;;;;55.42;24.50;;;0.90;99.90;;;1.64;96.92;101242.50;5014364;28;20033;-84
2021/01/09 05:19:30;;;;;;;57.08;23.80;;;0.90;99.90;;;1.68;96.52;101246.34;5031079;28;20563;-84
2021/01/09 05:22:03;;;;;;;56.85;24.70;;;0.90;99.90;;;1.64;96.35;101248.03;5035157;28;20029;-85
2021/01/09 05:24:35;;;;;;;57.45;24.55;;;1.00;99.90;;;1.59;96.32;101243.38;5036730;28;20052;-83
2021/01/09 05:27:02;;;;;;;55.20;24.33;;;0.90;99.90;;;1.66;96.51;101245.00;5019968;28;20029;-84
2021/01/09 05:29:29;;;;;;;45.45;23.17;;;0.90;99.90;;;1.68;96.28;101245.53;5045615;28;20022;-83
2021/01/09 05:31:54;;;;;;;41.92;18.55;;;0.90;99.90;;;1.69;96.30;101252.69;5050256;28;20018;-84
2021/01/09 05:34:21;;;;;;;44.33;20.67;;;0.90;99.90;;;1.65;96.02;101249.69;5048840;28;20036;-83
2021/01/09 05:36:46;;;;;;;50.05;20.85;;;0.90;99.90;;;1.62;95.82;101249.41;5025342;28;20056;-84
2021/01/09 05:39:12;;;;;;;40.92;19.92;;;0.90;99.90;;;1.64;96.30;101258.25;5022401;28;20237;-84
2021/01/09 05:41:42;;;;;;;53.90;23.55;;;0.90;99.90;;;1.65;95.72;101257.09;5039098;28;20029;-85
2021/01/09 05:44:10;;;;;;;55.58;25.70;;;0.90;99.90;;;1.58;95.73;101258.25;5020411;28;20053;-85
2021/01/09 05:46:41;;;;;;;56.70;23.45;;;0.90;99.90;;;1.57;96.20;101270.34;5020842;28;20025;-84
2021/01/09 05:49:09;;;;;;;55.75;25.55;;;0.90;99.90;;;1.57;96.13;101264.84;5016722;28;20064;-85
2021/01/09 05:51:38;;;;;;;60.65;25.88;;;0.90;99.90;;;1.55;96.17;101269.00;5020239;28;20112;-85
2021/01/09 05:54:04;;;;;;;57.63;23.17;;;0.90;99.90;;;1.59;96.30;101265.41;5020136;28;20029;-85
2021/01/09 05:56:34;;;;;;;57.70;24.25;;;0.90;99.90;;;1.62;96.49;101268.69;5020192;28;20033;-85
2021/01/09 05:59:00;;;;;;;53.70;22.48;;;0.90;99.90;;;1.62;96.27;101272.28;5036533;28;20056;-83
2021/01/09 06:01:30;;;;;;;50.47;24.80;;;0.90;99.90;;;1.65;96.45;101281.91;5017423;28;20488;-84
2021/01/09 06:04:20;;;;;;;40.33;19.10;;;0.90;99.90;;;1.66;96.43;101283.53;5016590;28;20457;-86
2021/01/09 06:07:10;;;;;;;48.63;20.63;;;0.90;99.90;;;1.67;96.28;101277.75;5019601;28;20030;-85
2021/01/09 06:10:03;;;;;;;45.45;20.33;;;0.90;99.90;;;1.66;96.54;101283.53;5016981;28;20017;-86
2021/01/09 06:12:37;;;;;;;44.67;19.00;;;0.90;99.90;;;1.68;96.33;101278.56;5020257;28;20029;-86
2021/01/09 06:15:09;;;;;;;44.67;20.50;;;0.90;99.90;;;1.68;96.42;101292.34;5021042;28;20030;-84
2021/01/09 06:17:35;;;;;;;44.25;18.73;;;1.00;99.90;;;1.65;96.35;101287.41;5051402;28;20647;-84
2021/01/09 06:20:03;;;;;;;44.00;18.58;;;0.90;99.90;;;1.64;96.33;101280.25;5048638;28;20041;-84
2021/01/09 06:22:30;;;;;;;44.45;20.05;;;0.90;99.90;;;1.62;96.48;101279.72;5019041;28;20029;-83
2021/01/09 06:24:56;;;;;;;42.88;19.02;;;0.90;99.90;;;1.61;96.44;101281.63;5023846;28;20036;-84
2021/01/09 06:27:34;;;;;;;47.42;20.00;;;0.90;99.90;;;1.61;96.22;101289.09;4999603;28;20040;-84
2021/01/09 06:30:07;;;;;;;43.92;20.15;;;0.90;99.90;;;1.60;96.62;101282.75;5020062;28;20085;-84
2021/01/09 06:32:39;;;;;;;50.88;21.10;;;0.90;99.90;;;1.58;96.77;101279.44;5022558;28;20473;-83
2021/01/09 06:35:08;;;;;;;51.35;22.88;;;0.90;99.90;;;1.63;96.59;101282.19;5018315;28;20148;-86
2021/01/09 06:37:35;;;;;;;54.30;22.17;;;0.90;99.90;;;1.65;96.41;101287.41;5016981;28;20041;-85
2021/01/09 06:40:04;;;;;;;52.72;22.70;;;0.90;99.90;;;1.64;96.71;101285.78;5017153;28;20491;-85
2021/01/09 06:42:32;;;;;;;64.40;24.52;;;0.90;99.90;;;1.61;96.81;101289.91;5015892;28;20033;-84
2021/01/09 06:45:01;;;;;;;71.38;27.58;;;0.90;99.90;;;1.65;96.40;101290.97;5016337;28;20034;-84
2021/01/09 06:47:30;;;;;;;61.20;25.30;;;0.90;99.90;;;1.57;96.76;101291.59;5035114;28;20036;-84
2021/01/09 06:50:18;;;;;;;65.78;26.42;;;0.90;99.90;;;1.62;96.62;101290.72;5014242;28;20116;-84
2021/01/09 06:52:58;;;;;;;59.42;25.73;;;0.90;99.90;;;1.60;96.32;101285.50;5018678;28;20469;-84
2021/01/09 06:55:35;;;;;;;63.67;25.30;;;0.90;99.90;;;1.56;96.29;101288.00;5016150;28;20367;-85
2021/01/09 06:58:14;;;;;;;63.47;26.10;;;0.80;99.90;;;1.55;96.47;101302.88;5035955;28;20037;-85
2021/01/09 07:00:39;;;;;;;59.33;24.00;;;0.80;99.90;;;1.53;96.49;101288.56;5016821;28;20037;-84
2021/01/09 07:03:14;;;;;;;67.22;27.00;;;0.80;99.90;;;1.50;96.50;101291.91;5003650;28;20552;-85
2021/01/09 07:05:50;;;;;;;60.58;25.33;;;0.80;99.90;;;1.49;96.64;101293.00;4996657;28;20129;-85
2021/01/09 07:08:33;;;;;;;65.53;26.77;;;0.80;99.90;;;1.46;96.58;101290.81;4997935;28;20120;-84
2021/01/09 07:11:05;;;;;;;64.40;25.92;;;0.80;99.90;;;1.51;96.42;101298.19;5015726;28;20033;-84
2021/01/09 07:13:32;;;;;;;77.68;28.88;;;0.80;99.90;;;1.52;96.64;101294.34;5018841;28;20033;-85
2021/01/09 07:16:14;;;;;;;65.22;26.50;;;0.80;99.90;;;1.48;96.37;101291.34;5017572;28;20538;-84
2021/01/09 07:18:50;;;;;;;66.07;25.85;;;0.80;99.90;;;1.49;96.38;101292.16;5017769;28;20060;-85
2021/01/09 07:21:20;;;;;;;68.93;26.17;;;0.80;99.90;;;1.47;96.64;101308.16;5035203;28;20041;-85
2021/01/09 07:23:53;;;;;;;68.80;27.17;;;0.80;99.90;;;1.48;96.46;101315.28;5017699;28;20054;-85
2021/01/09 07:26:20;;;;;;;62.83;25.50;;;0.80;99.90;;;1.48;96.13;101318.88;5010459;28;20294;-85
2021/01/09 07:28:52;;;;;;;64.13;26.77;;;0.80;99.90;;;1.41;96.42;101323.03;5014115;28;20037;-86
2021/01/09 07:31:24;;;;;;;63.95;25.50;;;0.80;99.90;;;1.49;96.60;101331.53;5017850;28;20097;-85
2021/01/09 07:33:58;;;;;;;63.13;23.65;;;0.80;99.90;;;1.50;96.43;101332.34;5019964;28;20029;-83
2021/01/09 07:36:31;;;;;;;65.47;24.52;;;0.80;99.90;;;1.53;96.53;101340.88;5036502;28;20025;-86
2021/01/09 07:39:05;;;;;;;58.75;24.80;;;0.80;99.90;;;1.58;96.45;101340.03;5019221;28;20025;-86
2021/01/09 07:41:38;;;;;;;58.85;24.27;;;0.90;99.90;;;1.60;96.42;101340.59;5019118;28;20088;-84
2021/01/09 07:44:19;;;;;;;62.33;25.38;;;0.90;99.90;;;1.66;96.61;101330.34;5020398;28;20405;-83
2021/01/09 07:46:58;;;;;;;62.53;23.58;;;0.90;99.90;;;1.72;96.32;101340.25;5025496;28;20056;-84
2021/01/09 07:49:30;;;;;;;53.08;22.80;;;1.00;99.90;;;1.72;96.52;101341.06;5042243;28;20075;-85
2021/01/09 07:51:59;;;;;;;55.78;23.52;;;1.00;99.90;;;1.72;96.30;101332.81;5021640;28;20455;-85
2021/01/09 07:54:42;;;;;;;61.03;24.95;;;1.00;99.90;;;1.74;96.34;101338.03;5018746;28;20029;-82
2021/01/09 07:57:27;;;;;;;64.75;23.67;;;1.00;99.90;;;1.70;96.17;101336.97;5035902;28;20033;-84
2021/01/09 07:59:59;;;;;;;60.95;23.17;;;1.00;99.90;;;1.72;96.31;101331.97;5005791;28;20046;-83
2021/01/09 08:02:33;;;;;;;63.58;24.50;;;1.00;99.90;;;1.67;96.09;101332.03;5017104;28;20395;-82
2021/01/09 08:05:22;;;;;;;56.95;23.60;;;1.00;99.90;;;1.66;95.92;101342.19;5001775;28;20030;-82
2021/01/09 08:07:56;;;;;;;70.22;25.02;;;1.00;99.90;;;1.67;96.07;101341.09;5001868;28;20110;-82
2021/01/09 08:10:34;;;;;;;70.93;25.88;;;1.00;99.90;;;1.65;96.25;101347.97;5001937;28;20029;-84
2021/01/09 08:13:08;;;;;;;66.07;24.05;;;0.90;99.90;;;1.66;95.96;101347.72;5026482;28;20037;-84
2021/01/09 08:15:37;;;;;;;68.15;24.75;;;0.90;99.90;;;1.66;95.97;101357.91;5009405;28;20355;-84
2021/01/09 08:18:06;;;;;;;66.68;24.45;;;0.90;99.90;;;1.67;96.09;101354.06;5007253;28;20038;-82
2021/01/09 08:20:34;;;;;;;59.70;23.27;;;1.00;99.90;;;1.66;95.94;101353.22;5016441;28;20763;-86
2021/01/09 08:23:04;;;;;;;52.58;22.73;;;1.00;99.90;;;1.65;96.13;101353.50;5042254;28;20033;-87
2021/01/09 08:25:38;;;;;;;59.40;23.13;;;1.00;99.90;;;1.74;96.09;101363.63;5042463;28;20033;-86
2021/01/09 08:28:06;;;;;;;56.90;23.60;;;1.00;99.90;;;1.71;96.15;101363.38;5037320;28;20025;-88
2021/01/09 08:30:35;;;;;;;72.30;26.13;;;1.00;99.90;;;1.69;96.34;101358.16;5020244;28;20040;-84
2021/01/09 08:33:14;;;;;;;57.97;23.10;;;1.00;99.90;;;1.82;95.84;101368.56;5042470;28;20089;-83
2021/01/09 08:35:52;;;;;;;63.45;24.42;;;1.10;99.90;;;1.88;95.55;101369.38;5040145;28;20030;-87
2021/01/09 08:38:28;;;;;;;62.25;22.80;;;1.10;99.90;;;1.91;95.44;101379.81;5041733;28;20036;-84
2021/01/09 08:40:58;;;;;;;53.33;23.38;;;1.10;99.90;;;1.93;95.56;101378.41;5028736;28;20033;-84
2021/01/09 08:43:26;;;;;;;53.95;21.05;;;1.10;99.90;;;1.98;95.33;101375.66;5023964;28;20029;-83
2021/01/09 08:45:55;;;;;;;52.83;21.30;;;1.20;99.90;;;2.03;95.74;101378.38;5016611;28;20038;-83
2021/01/09 08:48:39;;;;;;;54.30;22.50;;;1.30;99.90;;;2.13;95.69;101385.75;5009141;28;20036;-83
2021/01/09 08:51:13;;;;;;;56.28;23.50;;;1.30;99.90;;;2.12;94.05;101398.72;5014014;28;20117;-83
2021/01/09 08:53:51;;;;;;;50.03;23.60;;;1.40;99.90;;;2.15;94.16;101404.78;5021405;28;20049;-84
2021/01/09 08:56:20;;;;;;;46.70;22.70;;;1.40;99.90;;;2.15;94.04;101411.13;5022919;28;20037;-83
2021/01/09 08:58:47;;;;;;;48.55;21.38;;;1.40;99.90;;;2.15;93.77;101413.88;5028611;28;20034;-83
2021/01/09 09:01:20;;;;;;;49.25;21.75;;;1.40;99.90;;;2.08;94.04;101405.91;5004147;28;20160;-85
2021/01/09 09:03:56;;;;;;;50.78;22.30;;;1.40;99.90;;;2.02;94.34;101406.22;5003431;28;20041;-82
2021/01/09 09:06:28;;;;;;;58.17;22.80;;;1.40;99.90;;;2.07;94.53;101411.69;5031173;28;20469;-83
2021/01/09 09:08:55;;;;;;;60.65;23.67;;;1.40;99.90;;;2.20;94.23;101416.59;5015679;28;20060;-82
2021/01/09 09:11:25;;;;;;;51.50;22.42;;;1.40;99.90;;;2.19;94.09;101425.13;5024383;28;20025;-82
2021/01/09 09:14:08;;;;;;;55.42;25.95;;;1.40;99.90;;;2.22;94.57;101419.88;5040617;28;20053;-84
2021/01/09 09:16:37;;;;;;;62.80;23.88;;;1.50;99.90;;;2.21;94.34;101421.00;5021539;28;20022;-84
2021/01/09 09:19:18;;;;;;;52.00;22.73;;;1.50;99.90;;;2.24;94.49;101412.16;5040393;28;20029;-85
2021/01/09 09:21:56;;;;;;;52.55;23.23;;;1.50;99.90;;;2.29;94.62;101414.06;5040008;28;20473;-84
2021/01/09 09:24:45;;;;;;;62.40;25.02;;;1.50;99.90;;;2.19;95.08;101414.09;5017238;28;20040;-83
2021/01/09 09:27:30;;;;;;;61.08;25.05;;;1.60;99.90;;;2.33;94.78;101418.72;5001543;28;20021;-84
2021/01/09 09:30:14;;;;;;;59.35;25.48;;;1.60;99.90;;;2.36;94.37;101420.09;5015173;28;20032;-85
2021/01/09 09:32:45;;;;;;;56.00;25.05;;;1.70;99.90;;;2.44;94.58;101412.03;5040057;28;20060;-82
2021/01/09 09:35:27;;;;;;;53.47;22.90;;;1.70;99.90;;;2.52;94.30;101422.47;5045066;28;20501;-84
2021/01/09 09:37:59;;;;;;;53.08;22.70;;;1.80;99.90;;;2.51;92.85;101437.34;5023307;28;20155;-82
2021/01/09 09:40:33;;;;;;;50.08;22.58;;;1.80;99.90;;;2.50;91.99;101432.97;5017554;28;20026;-83
2021/01/09 09:43:19;;;;;;;46.83;22.48;;;1.80;99.90;;;2.54;91.88;101430.44;5019888;28;20040;-82
2021/01/09 09:46:06;;;;;;;49.53;23.00;;;1.80;99.90;;;2.51;92.37;101445.63;5018793;28;20059;-82
2021/01/09 09:48:37;;;;;;;60.55;25.73;;;1.80;99.90;;;2.57;92.58;101441.72;5018617;28;20029;-83
2021/01/09 09:51:08;;;;;;;41.15;19.85;;;1.90;99.90;;;2.63;92.90;101445.28;5019160;28;20072;-82
2021/01/09 09:53:36;;;;;;;39.40;18.50;;;1.90;99.90;;;2.69;92.94;101440.56;5020968;28;20061;-82
2021/01/09 09:56:20;;;;;;;42.50;20.48;;;1.90;99.90;;;2.76;92.49;101447.38;5019859;28;20048;-84
2021/01/09 09:59:00;;;;;;;36.75;19.50;;;2.00;99.90;;;2.83;92.68;101445.13;5019802;28;20041;-82
2021/01/09 10:01:27;;;;;;;39.40;19.83;;;2.00;99.90;;;2.89;92.77;101434.91;5019885;28;20038;-82
2021/01/09 10:03:53;;;;;;;37.42;18.27;;;2.10;99.90;;;2.91;92.41;101439.00;5002796;28;20286;-82
2021/01/09 10:06:19;;;;;;;35.58;18.23;;;2.10;99.90;;;2.93;92.32;101439.53;5021300;28;20464;-83
2021/01/09 10:08:46;;;;;;;33.30;18.80;;;2.20;99.90;;;3.01;92.53;101441.69;5003867;28;20033;-85
2021/01/09 10:11:12;;;;;;;31.92;18.50;;;2.20;99.90;;;3.16;92.11;101426.94;5020637;28;20032;-81
2021/01/09 10:13:38;;;;;;;36.78;18.90;;;2.30;99.90;;;3.24;91.21;101436.53;5019250;28;20026;-85
2021/01/09 10:16:05;;;;;;;34.53;17.60;;;2.40;99.90;;;3.29;91.41;101442.81;5020048;28;20057;-85
2021/01/09 10:18:33;;;;;;;34.28;17.98;;;2.40;99.90;;;3.23;91.33;101443.97;5021356;28;20034;-84
2021/01/09 10:21:00;;;;;;;32.05;16.75;;;2.40;99.90;;;3.09;91.51;101440.22;5021618;28;20037;-84
2021/01/09 10:23:30;;;;;;;31.75;16.60;;;2.40;99.90;;;3.23;90.98;101432.94;5019924;28;20034;-82
2021/01/09 10:25:56;;;;;;;38.53;18.88;;;2.40;99.90;;;3.36;90.71;101437.78;5021478;28;20030;-82